x

Bay Of Campeche - 214 Nm Ne Of Veracruz, Mx (42055) Wave Buoy

8:50am - Sun 26th Oct 2014 All times are UTC.

  • Sig Wave height 2.6ft
  • Swell Direction
  • Peak Period 7s
  • Average Period 5s
  • Wind
    7mph, 9mph gusts
  • Sea Temp 83°f
  • Air Temp 79°f
  • Sea Pressure 1016.6mb

More Historic Weather Station data

Upgrade to MSW Pro to gain access to the past 30 days of data for over 8000 Wavebouys and Weather Stations around the globe.

Join Pro

Comparision Forecast

View Surf forecast
   
Sun 10/26 8:50am 2.5ft 7s 5s 7 9 mph 1016.6mb 83f 79f
7:50am 2.5ft 7s 5s 7 9 mph 1016.9mb 83f 79f
6:50am 3ft 7s 5s 7 11 mph 1017.4mb 83f 79f
5:50am 3ft 7s 5s 9 11 mph 1017.7mb 83f 80f
4:50am 3ft 7s 5s 11 13 mph 1018.3mb 83f 80f
3:50am 3ft 8s 5s 11 13 mph 1018.4mb 83f 80f
2:50am 3.5ft 8s 5s 11 13 mph 1018.4mb 83f 80f
1:50am 3.5ft 7s 5s 11 13 mph 1018.2mb 83f 80f
12:50am 3.5ft 7s 5s 13 16 mph 1017.6mb 83f 80f
Sat 10/25 11:50pm 3.5ft 7s 5s 11 16 mph 1017.3mb 83f 80f
10:50pm 3.5ft 8s 5s 11 13 mph 1017.3mb 83f 80f
9:50pm 3.5ft 8s 5s 11 13 mph 1017.2mb 83f 80f
8:50pm 3.5ft 8s 5s 11 13 mph 1017.3mb 83f 80f
7:50pm 3.5ft 7s 5s 11 13 mph 1017.7mb 83f 80f
6:50pm 4ft 8s 5s 13 16 mph 1018.1mb 83f 80f
5:50pm 4ft 8s 5s 11 13 mph 1018.8mb 83f 80f
4:50pm 4ft 8s 6s 11 16 mph 1019.6mb 83f 80f
3:50pm 4ft 8s 5s 11 13 mph 1019.8mb 83f 80f
2:50pm 4.5ft 8s 5s 9 11 mph 1019.5mb 83f 80f
1:50pm 4.5ft 8s 6s 11 13 mph 1018.9mb 83f 79f
12:50pm 4.5ft 8s 5s 11 16 mph 1018.3mb 83f 79f
11:50am 4.5ft 8s 5s 9 13 mph 1017.9mb 83f 79f
10:50am 4.5ft 8s 5s 11 16 mph 1017.6mb 83f 79f
9:50am 4.5ft 8s 5s 16 18 mph 1017.2mb 83f 79f
8:50am 5ft 8s 5s 13 16 mph 1017.1mb 83f 79f
7:50am 5ft 8s 5s 13 18 mph 1017.2mb 83f 80f
6:50am 4.5ft 9s 5s 16 18 mph 1017.6mb 83f 80f
5:50am 5ft 8s 5s 16 22 mph 1017.9mb 83f 80f
4:50am 5ft 8s 5s 18 20 mph 1017.8mb 83f 80f
3:50am 5ft 8s 5s 16 20 mph 1017.8mb 83f 80f
2:50am 5ft 7s 5s 18 22 mph 1017.5mb 83f 80f
1:50am 5.5ft 8s 5s 20 25 mph 1016.5mb 83f 81f
12:50am 5ft 8s 5s 20 25 mph 1015.7mb 83f 80f
Fri 10/24 11:50pm 5ft 8s 5s 18 25 mph 1015mb 83f 81f
10:50pm 5ft 8s 5s 18 22 mph 1014.5mb 83f 81f
9:50pm 5ft 8s 5s 18 20 mph 1014.7mb 83f 81f
8:50pm 5ft 8s 5s 18 22 mph 1014.8mb 83f 81f
7:50pm 5ft 8s 5s 18 22 mph 1015.3mb 83f 81f
6:50pm 5ft 8s 5s 18 22 mph 1015.9mb 83f 81f
5:50pm 5.5ft 8s 5s 16 20 mph 1016.6mb 83f 81f
4:50pm 5ft 8s 5s 18 22 mph 1017.2mb 83f 81f
3:50pm 5ft 8s 5s 16 20 mph 1017.2mb 83f 81f
2:50pm 5ft 8s 5s 16 20 mph 1016.6mb 83f 81f
1:50pm 5.5ft 8s 6s 16 18 mph 1015.8mb 83f 81f
12:50pm 5.5ft 8s 6s 16 20 mph 1014.9mb 83f 81f
11:50am 5.5ft 8s 6s 16 20 mph 1014.2mb 83f 81f
10:50am 5.5ft 8s 6s 18 22 mph 1013.8mb 83f 81f
9:50am 6ft 8s 6s 16 20 mph 1013.6mb 83f 81f
8:50am 6ft 8s 6s 13 18 mph 1014mb 83f 80f
7:50am 6ft 8s 6s 16 20 mph 1014.3mb 83f 81f
6:50am 6ft 8s 6s 16 20 mph 1014.9mb 83f 81f
5:50am 6ft 8s 5s 18 22 mph 1015mb 83f 81f
4:50am 6.5ft 8s 6s 18 20 mph 1014.9mb 83f 81f
3:50am 7ft 8s 6s 20 22 mph 1015.2mb 83f 82f
2:50am 7ft 8s 6s 20 25 mph 1014.8mb 83f 82f
1:50am 7ft 7s 6s 22 29 mph 1013.9mb 83f 82f
12:50am 7ft 8s 6s 20 25 mph 1013.2mb 83f 82f
Thu 10/23 11:50pm 7ft 8s 6s 22 27 mph 1012.6mb 83f 82f
10:50pm 6.5ft 8s 6s 22 25 mph 1012.2mb 83f 82f
9:50pm 7ft 8s 6s 22 25 mph 1011.9mb 83f 82f
8:50pm 6.5ft 8s 6s 22 25 mph 1011.9mb 83f 82f
7:50pm 7ft 8s 6s 20 25 mph 1012.4mb 83f 82f
6:50pm 7ft 8s 6s 20 25 mph 1012.8mb 83f 82f
5:50pm 7.5ft 7s 6s 20 25 mph 1013.6mb 83f 82f
4:50pm 7ft 8s 6s 20 25 mph 1013.8mb 83f 82f
3:50pm 7ft 8s 6s 22 27 mph 1013.4mb 83f 82f
2:50pm 7ft 8s 6s 22 29 mph 1012.9mb 83f 82f
1:50pm 6ft 8s 5s 25 29 mph 1012.1mb 83f 82f
12:50pm 6.5ft 8s 6s 20 25 mph 1011.6mb 83f 82f
11:50am 6ft 8s 5s 22 25 mph 1011mb 83f 83f
10:50am 6.5ft 8s 6s 18 22 mph 1010.8mb 83f 82f
9:50am 6ft 7s 5s 20 22 mph 1010.5mb 83f 82f
8:50am 6ft 7s 5s 20 25 mph 1010.4mb 83f 82f
7:50am 6ft 7s 5s 20 25 mph 1010.6mb 83f 82f
6:50am 6ft 8s 5s 18 22 mph 1011mb 83f 80f
5:50am 6ft 8s 5s 20 25 mph 1011.2mb 83f 82f
4:50am 6ft 7s 5s 22 27 mph 1011.6mb 83f 83f
3:50am 6ft 7s 5s 22 27 mph 1011.9mb 83f 82f
2:50am 6ft 7s 5s 22 27 mph 1011.3mb 83f 83f
1:50am 6ft 7s 5s 22 27 mph 1010.9mb 83f 83f
12:50am 6ft 7s 5s 22 29 mph 1010.2mb 83f 83f
Wed 10/22 11:50pm 5.5ft 6s 5s 22 27 mph 1009.5mb 83f 83f
10:50pm 5.5ft 6s 5s 22 25 mph 1008.9mb 83f 83f
9:50pm 5.5ft 6s 5s 20 25 mph 1008.5mb 83f 82f
8:50pm 5.5ft 7s 5s 22 25 mph 1008.7mb 83f 83f
7:50pm 6ft 7s 5s 18 22 mph 1009.2mb 83f 82f
6:50pm 5ft 8s 5s 20 25 mph 1009.8mb 83f 82f
5:50pm 5.5ft 7s 5s 20 25 mph 1010.6mb 83f 82f
4:50pm 6ft 7s 5s 20 22 mph 1011.2mb 83f 82f
3:50pm 6ft 8s 5s 20 25 mph 1011.2mb 83f 82f
2:50pm 6ft 7s 5s 20 25 mph 1010.7mb 83f 82f
1:50pm 6.5ft 7s 6s 18 22 mph 1010.2mb 83f 82f
12:50pm 6.5ft 8s 6s 20 25 mph 1009.4mb 83f 82f
11:50am 6.5ft 8s 6s 18 20 mph 1008.8mb 83f 79f
10:50am 7ft 7s 6s 18 22 mph 1008.3mb 83f 82f